• Join FlightAware (Why Join?)
  • Login
  • US Flag 
03:32PM EDT


 

Airport Tracker/Info


-or-


 

Live Flight TrackerFlight Track Log ✈ VOZ905 ✈ 08-May-2013 ✈ YSSY / SYD - YBBN / BNE

Flight Track Log - Related Links

Times and Time Zones

All times are in EDT time to prevent confusion due to time zone crossing. See the VOZ905 flight status page for this flight to view local times or setup timezone preferences in your user account.

Time Position Orientation Groundspeed Altitude Reporting Facility
EDT Latitude Longitude Course Direction KTS MPH feet Rate Location/Type
04:41PM -33.9480 151.1880 12° North 149 171  Level FlightAware
04:42PM -33.9270 151.1920 North 169 194 1,200 2,040 Climbing FlightAware
04:42PM -33.9090 151.2080 36° Northeast 205 236 1,900 2,220 Climbing FlightAware
04:42PM -33.9010 151.2150 36° Northeast 203 234 2,500 3,360 Climbing FlightAware
04:43PM -33.8774 151.2362 36° Northeast 220 253 4,000 1,980 Climbing Aus ATC (RADAR)
04:43PM -33.8770 151.2370 36° Northeast 242 278 3,500 -420 Descending FlightAware
04:43PM -33.8490 151.2610 35° Northeast 279 321 3,800 600 Climbing FlightAware
04:43PM -33.8370 151.2730 40° Northeast 311 358 3,900 1,500 Climbing FlightAware
04:44PM -33.8145 151.3112 40° Northeast 309 356 4,600 480 Climbing Aus ATC (RADAR)
04:44PM -33.8070 151.3420 40° Northeast 335 386 4,300 2,280 Descending FlightAware
04:45PM -33.7480 151.4070 42° Northeast 323 372 7,600 3,300 Climbing FlightAware
04:45PM -33.7260 151.4150 17° North 323 372 8,200 1,800 Climbing FlightAware
04:46PM -33.6880 151.4300 18° North 342 394 8,800 1,740 Climbing FlightAware
04:46PM -33.6430 151.4480 18° North 358 412 9,800 2,880 Climbing FlightAware
04:46PM -33.5998 151.4656 18° North 361 415 11,300 2,400 Climbing Aus ATC (RADAR)
04:47PM -33.5710 151.4770 18° North 374 430 11,600 2,160 Climbing FlightAware
04:48PM -33.5010 151.5050 18° North 392 451 13,600 2,880 Climbing FlightAware
04:48PM -33.4440 151.5270 18° North 395 455 15,200 2,880 Climbing FlightAware
04:49PM -33.3550 151.5630 19° North 407 468 17,700 2,880 Climbing FlightAware
04:50PM -33.2750 151.5950 18° North 427 491 19,600 3,300 Climbing FlightAware
04:50PM -33.2143 151.6185 18° North 432 497 21,400 2,400 Climbing Aus ATC (RADAR)
04:50PM -33.1890 151.6280 18° North 439 505 21,400 1,500 Level FlightAware
04:51PM -33.1110 151.6590 18° North 442 509 22,900 2,640 Climbing FlightAware
04:52PM -33.0273 151.6924 18° North 455 524 24,800 2,100 Climbing Aus ATC (RADAR)
04:52PM -33.0310 151.6910 18° North 458 527 24,300 1,200 Descending FlightAware
04:52PM -32.9400 151.7260 18° North 457 526 25,800 2,460 Climbing FlightAware
04:53PM -32.8949 151.7443 18° North 466 536 26,900 2,100 Climbing Aus ATC (RADAR)
04:53PM -32.8570 151.7590 18° North 460 529 27,200 1,680 Climbing FlightAware
04:54PM -32.7750 151.7910 18° North 457 526 28,700 3,180 Climbing FlightAware
04:54PM -32.7621 151.7968 18° North 460 529 29,400 1,980 Climbing Aus ATC (RADAR)
04:55PM -32.6830 151.8270 18° North 459 528 30,200 1,740 Climbing FlightAware
04:55PM -32.6389 151.8445 18° North 465 535 31,200 1,500 Climbing Aus ATC (RADAR)
04:55PM -32.6000 151.8600 18° North 472 543 31,200 1,560 Level FlightAware
04:56PM -32.5035 151.8974 18° North 474 545 32,900 1,560 Climbing Aus ATC (RADAR)
04:56PM -32.5070 151.8960 18° North 476 548 32,400 540 Descending FlightAware
04:57PM -32.4230 151.9290 18° North 472 543 33,300 1,920 Climbing FlightAware
04:57PM -32.3664 151.9510 18° North 481 554 34,400 1,500 Climbing Aus ATC (RADAR)
04:57PM -32.3390 151.9610 18° North 474 545 34,300 1,020 Descending FlightAware
04:58PM -32.2420 151.9980 18° North 473 544 35,500 1,620 Climbing FlightAware
04:59PM -32.1590 152.0310 19° North 475 547 36,600 2,040 Climbing FlightAware
04:59PM -32.0936 152.0563 19° North 472 543 37,800 1,320 Climbing Aus ATC (RADAR)
04:59PM -32.0660 152.0660 19° North 471 542 37,600 600 Descending FlightAware
05:00PM -31.9820 152.0990 18° North 461 531 38,400 1,500 Climbing FlightAware
05:01PM -31.8974 152.1315 18° North 467 537 39,500 900 Climbing Aus ATC (RADAR)
05:01PM -31.9030 152.1290 18° North 461 531 39,000 240 Descending FlightAware
05:02PM -31.8080 152.1650 18° North 471 542 39,700 1,260 Climbing FlightAware
05:02PM -31.7317 152.1948 18° North 469 540 40,600 600 Climbing Aus ATC (RADAR)
05:02PM -31.7230 152.1980 18° North 473 544 40,100 -180 Descending FlightAware
05:03PM -31.6500 152.2260 18° North 474 545 40,500 1,440 Climbing FlightAware
05:03PM -31.6279 152.2346 18° North 467 537 41,100 1,440 Climbing Aus ATC (RADAR)
05:03PM -31.5550 152.2621 18° North 470 541 41,500 -180 Climbing Aus ATC (RADAR)
05:04PM -31.5480 152.2640 18° North 473 544 41,000 -180 Descending FlightAware
05:04PM -31.4618 152.2984 18° North 470 541 41,400  Climbing Aus ATC (RADAR)
05:05PM -31.4290 152.3100 18° North 473 544 41,000 -420 Descending FlightAware
05:05PM -31.3470 152.3410 18° North 472 543 41,000  Level FlightAware
05:06PM -31.2650 152.3720 18° North 470 541 41,000 360 Level FlightAware
05:06PM -31.2115 152.3924 18° North 467 537 41,400  Climbing Aus ATC (RADAR)
05:07PM -31.1780 152.4040 18° North 470 541 41,000  Descending FlightAware
05:07PM -31.0783 152.4431 18° North 468 539 41,400  Climbing Aus ATC (RADAR)
05:07PM -31.0920 152.4370 18° North 469 540 41,000  Descending FlightAware
05:08PM -31.0155 152.4667 18° North 464 534 41,400  Climbing Aus ATC (RADAR)
05:08PM -31.0120 152.4670 18° North 469 540 41,000  Descending FlightAware
05:08PM -30.9430 152.4933 18° North 465 535 41,400  Climbing Aus ATC (RADAR)
05:09PM -30.8780 152.5170 18° North 471 542 41,000  Descending FlightAware
05:10PM -30.7983 152.5484 18° North 465 535 41,400  Climbing Aus ATC (RADAR)
05:10PM -30.7870 152.5520 18° North 472 543 41,000 -600 Descending FlightAware
05:10PM -30.7220 152.5760 18° North 472 543 41,000  Level FlightAware
05:11PM -30.6180 152.6150 18° North 470 541 41,000 300 Level FlightAware
05:12PM -30.5502 152.6410 18° North 469 540 41,400  Climbing Aus ATC (RADAR)
05:12PM -30.5240 152.6500 17° North 469 540 41,000  Descending FlightAware
05:12PM -30.5182 152.6525 17° North 465 535 41,400 660 Climbing Aus ATC (RADAR)
05:12PM -30.4451 152.6787 17° North 465 535 41,400 -660 Level Aus ATC (RADAR)
05:12PM -30.4500 152.6770 17° North 469 540 41,000  Descending FlightAware
05:13PM -30.3633 152.7096 17° North 461 531 41,400  Climbing Aus ATC (RADAR)
05:13PM -30.3520 152.7130 17° North 467 537 41,000  Descending FlightAware
05:14PM -30.2908 152.7361 17° North 464 534 41,400  Climbing Aus ATC (RADAR)
05:14PM -30.2350 152.7570 17° North 465 535 41,000  Descending FlightAware
05:15PM -30.1477 152.7888 17° North 456 525 41,400  Climbing Aus ATC (RADAR)
05:15PM -30.1580 152.7850 17° North 459 528 41,000 -360 Descending FlightAware
05:16PM -30.0150 152.8380 18° North 446 513 41,000 240 Level FlightAware
05:16PM -29.9715 152.8547 18° North 435 501 41,400  Climbing Aus ATC (RADAR)
05:17PM -29.9270 152.8700 18° North 444 511 41,000  Descending FlightAware
05:17PM -29.8526 152.8958 18° North 442 509 41,400  Climbing Aus ATC (RADAR)
05:17PM -29.8470 152.8990 18° North 444 511 41,000  Descending FlightAware
05:18PM -29.7644 152.9280 18° North 439 505 41,400  Climbing Aus ATC (RADAR)
05:18PM -29.7690 152.9280 18° North 444 511 41,000  Descending FlightAware
05:19PM -29.6970 152.9543 18° North 437 503 41,400  Climbing Aus ATC (RADAR)
05:19PM -29.6810 152.9600 18° North 443 510 41,000  Descending FlightAware
05:19PM -29.6296 152.9794 18° North 442 509 41,400  Climbing Aus ATC (RADAR)
05:19PM -29.6030 152.9890 18° North 441 507 41,000  Descending FlightAware
05:20PM -29.5608 153.0046 18° North 434 499 41,400  Climbing Aus ATC (RADAR)
05:20PM -29.5180 153.0200 18° North 441 507 41,000 -420 Descending FlightAware
05:21PM -29.4370 153.0490 17° North 441 507 41,000 -300 Level FlightAware
05:22PM -29.3610 153.0770 18° North 439 505 40,600 -240 Descending FlightAware
05:22PM -29.3283 153.0903 18° North 428 493 40,800 -240 Climbing Aus ATC (RADAR)
05:22PM -29.2990 153.0995 15° North 427 491 40,500 -1,800 Descending Aus ATC (RADAR)
05:22PM -29.2760 153.1070 15° North 425 489 39,900 -1,080 Descending FlightAware
05:23PM -29.2330 153.1221 15° North 419 482 39,900 -1,080 Level Aus ATC (RADAR)
05:23PM -29.2030 153.1340 15° North 425 489 39,200 -1,440 Descending FlightAware
05:24PM -29.1260 153.1620 18° North 426 490 38,500 -660 Descending FlightAware
05:24PM -29.0464 153.1898 18° North 413 475 38,400 -720 Descending Aus ATC (RADAR)
05:24PM -29.0500 153.1890 18° North 406 467 38,000 -1,200 Descending FlightAware
05:25PM -28.9744 153.2148 18° North 399 459 37,600 -1,200 Descending Aus ATC (RADAR)
05:25PM -28.9760 153.2160 18° North 401 461 37,200 -1,560 Descending FlightAware
05:26PM -28.8900 153.2470 18° North 390 449 36,300 -840 Descending FlightAware
05:26PM -28.8365 153.2648 18° North 382 440 36,200 -1,200 Descending Aus ATC (RADAR)
05:26PM -28.8220 153.2710 18° North 389 448 35,500 -1,620 Descending FlightAware
05:27PM -28.7450 153.2990 18° North 386 444 34,700 -1,080 Descending FlightAware
05:28PM -28.6780 153.3230 17° North 389 448 34,000 -1,140 Descending FlightAware
05:29PM -28.6070 153.3480 17° North 381 438 33,200 -1,140 Descending FlightAware
05:29PM -28.5330 153.3740 17° North 371 427 32,400 -900 Descending FlightAware
05:30PM -28.4670 153.3981 17° North 368 423 32,000 -1,080 Descending Aus ATC (RADAR)
05:30PM -28.4680 153.3980 17° North 367 422 31,700 -1,440 Descending FlightAware
05:31PM -28.3940 153.4240 17° North 370 426 30,900 -1,140 Descending FlightAware
05:31PM -28.3290 153.4470 17° North 360 414 30,100 -900 Descending FlightAware
05:32PM -28.2662 153.4712 17° North 361 415 29,800 -900 Descending Aus ATC (RADAR)
05:32PM -28.2670 153.4690 17° North 348 400 29,500 -900 Descending FlightAware
05:33PM -28.2135 153.4887 17° North 344 396 29,300 -1,080 Descending Aus ATC (RADAR)
05:33PM -28.1990 153.4930 17° North 337 388 28,700 -1,080 Descending FlightAware
05:33PM -28.1465 153.5159 17° North 339 390 28,500 -900 Descending Aus ATC (RADAR)
05:33PM -28.1430 153.5220 17° North 340 391 28,100 -1,920 Descending FlightAware
05:34PM -28.1310 153.5430 57° Northeast 347 399 27,800 -1,020 Descending FlightAware
05:34PM -28.1260 153.5670 77° East 349 402 27,600 -900 Descending FlightAware
05:34PM -28.1380 153.6130 106° East 337 388 27,200 -1,080 Descending FlightAware
05:35PM -28.1550 153.6300 139° Southeast 326 375 26,900 -1,020 Descending FlightAware
05:35PM -28.1760 153.6400 157° South 315 362 26,700 -1,080 Descending FlightAware
05:35PM -28.2100 153.6370 184° South 301 346 26,200 -1,080 Descending FlightAware
05:36PM -28.2700 153.6150 198° South 298 343 25,500 -1,020 Descending FlightAware
05:37PM -28.3230 153.5960 198° South 297 342 24,800 -720 Descending FlightAware
05:37PM -28.3561 153.5842 198° South 300 345 24,800 -960 Level Aus ATC (RADAR)
05:37PM -28.3810 153.5730 198° South 291 335 24,100 -1,740 Descending FlightAware
05:38PM -28.3910 153.5650 215° Southwest 288 331 23,900 -960 Descending FlightAware
05:38PM -28.4040 153.5470 231° Southwest 286 329 23,700 -1,020 Descending FlightAware
05:38PM -28.4110 153.5260 249° West 284 327 23,400 -420 Descending FlightAware
05:38PM -28.4130 153.4963 249° West 285 328 23,500 -1,020 Climbing Aus ATC (RADAR)
05:39PM -28.4060 153.4810 249° West 285 328 22,900 -1,500 Descending FlightAware
05:39PM -28.3960 153.4640 304° West 286 329 22,800 -600 Descending FlightAware
05:39PM -28.3690 153.4450 328° Northwest 295 339 22,500 -600 Descending FlightAware
05:40PM -28.3290 153.4500 North 329 379 22,300 -120 Descending FlightAware
05:40PM -28.2884 153.4646 North 330 380 22,400 -780 Climbing Aus ATC (RADAR)
05:40PM -28.2640 153.4720 North 348 400 21,800 -1,260 Descending FlightAware
05:41PM -28.2010 153.4930 16° North 353 406 21,200 -720 Descending FlightAware
05:42PM -28.1443 153.5014 16° North 354 407 21,000 -1,080 Descending Aus ATC (RADAR)
05:42PM -28.1310 153.4970 16° North 340 391 20,400 -1,620 Descending FlightAware
05:43PM -28.0529 153.4842 16° North 333 383 19,400 -1,560 Descending Aus ATC (RADAR)
05:43PM -28.0610 153.4850 16° North 323 372 19,100 -1,800 Descending FlightAware
05:43PM -27.9928 153.4734 16° North 329 379 18,200 -1,800 Descending Aus ATC (RADAR)
05:44PM -27.9830 153.4710 16° North 328 377 17,600 -2,100 Descending FlightAware
05:44PM -27.9400 153.4644 16° North 330 380 17,000 -2,100 Descending Aus ATC (RADAR)
05:44PM -27.8960 153.4560 16° North 330 380 15,700 -3,060 Descending FlightAware
05:45PM -27.8300 153.4440 351° North 358 412 13,300 -2,640 Descending FlightAware
05:46PM -27.7580 153.4320 352° North 345 397 12,000 -1,200 Descending FlightAware
05:46PM -27.6958 153.4210 352° North 345 397 11,700 -1,080 Descending Aus ATC (RADAR)
05:47PM -27.6950 153.4210 352° North 346 398 11,300 -720 Descending FlightAware
05:47PM -27.6567 153.4139 352° North 341 392 11,400 -1,380 Climbing Aus ATC (RADAR)
05:47PM -27.6310 153.4090 352° North 331 381 10,400 -2,640 Descending FlightAware
05:48PM -27.5860 153.4000 350° North 333 383 9,300 -1,860 Descending FlightAware
05:48PM -27.5585 153.3948 350° North 334 384 9,000 -2,040 Descending Aus ATC (RADAR)
05:48PM -27.5430 153.3910 350° North 329 379 8,300 -2,640 Descending FlightAware
05:49PM -27.5030 153.3840 351° North 328 377 7,300 -2,280 Descending FlightAware
05:49PM -27.4820 153.3800 350° North 327 376 6,800 -1,500 Descending FlightAware
05:49PM -27.4461 153.3732 350° North 329 379 6,400 -2,160 Descending Aus ATC (RADAR)
05:49PM -27.4440 153.3730 350° North 326 375 5,900 -3,840 Descending FlightAware
05:50PM -27.4210 153.3670 347° North 330 380 5,200 -2,820 Descending FlightAware
05:50PM -27.4020 153.3550 331° Northwest 340 391 4,500 -2,040 Descending FlightAware
05:50PM -27.3880 153.3320 304° West 330 380 4,200 -780 Descending FlightAware
05:50PM -27.3680 153.2990 304° West 297 342 4,000 420 Descending FlightAware
05:50PM -27.3653 153.2940 304° West 314 361 4,400 -840 Climbing Aus ATC (RADAR)
05:51PM -27.3580 153.2820 304° West 282 325 3,800 -2,100 Descending FlightAware
05:51PM -27.3370 153.2480 305° West 248 285 2,900 -1,800 Descending FlightAware
05:52PM -27.3170 153.2170 306° West 219 252 2,000 -1,080 Descending FlightAware
05:52PM -27.3070 153.2011 306° West 219 252 2,100 -1,020 Climbing Aus ATC (RADAR)
05:52PM -27.3020 153.1910 306° West 191 220 1,500 -2,220 Descending FlightAware
05:52PM -27.3010 153.1870 286° West 184 212 1,400 -900 Descending FlightAware
05:53PM -27.3170 153.1670 228° Southwest 137 158 900 -840 Descending FlightAware
05:53PM -27.3250 153.1630 204° Southwest 130 150 700 -720 Descending FlightAware
05:54PM -27.3410 153.1530 209° Southwest 127 146 400 -660 Descending FlightAware
05:54PM -27.3540 153.1460 206° Southwest 130 150 100 -180 Descending FlightAware
05:54PM -27.3641 153.1405 206° Southwest 132 152 300 720 Climbing Aus ATC (RADAR)
05:55PM -27.3710 153.1360 206° Southwest 139 160 -1,320 Descending FlightAware
05:55PM -27.3840 153.1290 206° Southwest 105 121  Level FlightAware
05:55PM -27.3900 153.1240 216° Southwest 31 36  Level FlightAware
05:56PM -27.3910 153.1220 241° Southwest 15 17  Level FlightAware
05:56PM -27.3900 153.1220 360° North 15 17  Level FlightAware
05:57PM -27.3890 153.1220 360° North 12 14  Level FlightAware